Time;durP1;ratioP1;P1;durP2;ratioP2;P2;SDS_P1;SDS_P2;PMS_P1;PMS_P2;Temp;Humidity;BMP_temperature;BMP_pressure;BME280_temperature;BME280_humidity;BME280_pressure;Samples;Min_cycle;Max_cycle;Signal;HPM_P1;HPM_P2
2023/08/15 00:01:41;;;;;;;7.50;5.13;;;;;;;23.53;82.92;99708.88;5016119;28;20033;-83
2023/08/15 00:04:06;;;;;;;8.57;4.80;;;;;;;23.51;82.70;99694.91;5033819;28;20108;-83
2023/08/15 00:06:32;;;;;;;5.10;4.50;;;;;;;23.41;82.39;99681.69;5033532;28;20076;-83
2023/08/15 00:08:59;;;;;;;5.55;5.00;;;;;;;23.45;82.31;99684.88;5015932;28;20029;-83
2023/08/15 00:11:25;;;;;;;5.72;4.93;;;;;;;23.48;82.16;99691.72;5033257;28;20037;-83
2023/08/15 00:13:55;;;;;;;5.07;3.90;;;;;;;23.48;81.79;99684.56;5015888;28;20034;-83
2023/08/15 00:16:20;;;;;;;9.45;5.25;;;;;;;23.46;81.50;99683.03;5033465;28;20052;-83
2023/08/15 00:18:46;;;;;;;4.32;3.95;;;;;;;23.57;81.53;99696.13;5015858;28;20480;-83
2023/08/15 00:21:12;;;;;;;6.97;4.13;;;;;;;23.56;81.03;99699.75;5016071;28;20033;-83
2023/08/15 00:23:37;;;;;;;6.75;4.35;;;;;;;23.59;81.29;99689.63;5033246;28;20040;-83
2023/08/15 00:26:03;;;;;;;5.57;4.60;;;;;;;23.62;81.42;99699.97;5033194;28;20025;-83
2023/08/15 00:28:28;;;;;;;5.05;4.55;;;;;;;23.66;81.00;99697.88;5032991;28;20103;-83
2023/08/15 00:30:54;;;;;;;5.95;4.60;;;;;;;23.61;81.05;99678.88;5033395;28;20030;-83
2023/08/15 00:33:19;;;;;;;5.60;4.40;;;;;;;23.67;81.29;99686.25;5032990;28;20029;-83
2023/08/15 00:35:45;;;;;;;7.13;4.80;;;;;;;23.69;81.28;99692.25;5033394;28;20017;-83
2023/08/15 00:38:10;;;;;;;6.75;5.00;;;;;;;23.68;81.88;99690.56;5015380;28;20033;-83
2023/08/15 00:40:39;;;;;;;6.82;5.28;;;;;;;23.60;81.75;99678.03;5032728;28;20018;-83
2023/08/15 00:43:05;;;;;;;5.50;4.95;;;;;;;23.57;82.63;99673.00;5015404;28;20068;-83
2023/08/15 00:45:31;;;;;;;6.78;5.18;;;;;;;23.61;82.42;99676.19;5015047;28;20427;-83
2023/08/15 00:47:56;;;;;;;5.60;5.05;;;;;;;23.54;83.08;99678.63;5033015;28;20025;-83
2023/08/15 00:50:23;;;;;;;5.57;4.97;;;;;;;23.50;83.04;99679.94;5014719;28;20080;-83
2023/08/15 00:52:49;;;;;;;5.82;5.20;;;;;;;23.45;83.01;99679.56;5032794;28;20063;-83
2023/08/15 00:55:15;;;;;;;7.53;4.90;;;;;;;23.47;83.30;99682.91;5032651;28;20061;-83
2023/08/15 00:57:40;;;;;;;5.90;5.30;;;;;;;23.32;83.68;99666.66;5032617;28;20021;-83
2023/08/15 01:00:06;;;;;;;5.47;4.82;;;;;;;23.45;83.55;99686.69;5015028;28;20088;-83
2023/08/15 01:02:32;;;;;;;6.15;5.07;;;;;;;23.38;83.19;99671.34;5032499;28;20025;-83
2023/08/15 01:04:57;;;;;;;5.38;4.88;;;;;;;23.29;83.44;99655.50;5032706;28;20107;-83
2023/08/15 01:07:22;;;;;;;5.40;4.90;;;;;;;23.40;83.14;99685.34;5032279;28;20037;-83
2023/08/15 01:09:48;;;;;;;6.07;4.72;;;;;;;23.26;83.01;99653.13;5014697;28;20025;-83
2023/08/15 01:12:26;;;;;;;5.20;4.50;;;;;;;23.42;82.73;99688.66;5032302;28;20099;-83
2023/08/15 01:15:07;;;;;;;7.35;4.88;;;;;;;23.23;82.41;99656.94;5032357;28;20365;-83
2023/08/15 01:18:04;;;;;;;9.18;4.55;;;;;;;23.42;81.82;99687.81;5014496;28;20377;-83
2023/08/15 01:20:36;;;;;;;5.10;4.60;;;;;;;23.40;81.65;99682.69;5032312;28;20034;-83
2023/08/15 01:23:06;;;;;;;4.88;4.18;;;;;;;23.36;81.21;99672.50;5032689;28;20038;-83
2023/08/15 01:25:38;;;;;;;4.60;4.20;;;;;;;23.35;80.88;99673.50;5031893;28;20481;-83
2023/08/15 01:28:04;;;;;;;;;;;;;;;23.48;81.07;99691.72;5032729;28;20113;-83
2023/08/15 01:30:29;;;;;;;4.40;4.00;;;;;;;23.38;80.92;99670.50;5032031;28;20384;-83
2023/08/15 01:33:11;;;;;;;4.63;4.13;;;;;;;23.47;80.60;99676.72;5032090;28;20041;-83
2023/08/15 01:35:46;;;;;;;4.60;4.18;;;;;;;23.52;80.05;99690.44;5014510;28;20025;-83
2023/08/15 01:38:32;;;;;;;6.15;4.55;;;;;;;23.53;80.12;99697.41;5014443;28;20036;-83
2023/08/15 01:41:00;;;;;;;4.57;4.18;;;;;;;23.59;79.87;99696.78;5032262;28;20025;-83
2023/08/15 01:43:27;;;;;;;4.70;4.30;;;;;;;23.48;79.96;99686.41;5032036;28;20036;-83
2023/08/15 01:45:53;;;;;;;5.07;4.40;;;;;;;23.51;79.56;99678.09;5031960;28;20420;-83
2023/08/15 01:48:18;;;;;;;6.53;4.53;;;;;;;23.58;79.65;99687.97;5032069;28;20037;-83
2023/08/15 01:50:43;;;;;;;7.13;5.00;;;;;;;23.48;78.67;99684.56;5031679;28;20041;-83
2023/08/15 01:53:09;;;;;;;4.47;4.03;;;;;;;23.62;78.95;99694.66;5031851;28;20435;-83
2023/08/15 01:55:34;;;;;;;4.80;4.30;;;;;;;23.54;78.82;99675.13;5031524;28;20037;-83
2023/08/15 01:57:59;;;;;;;4.70;4.10;;;;;;;23.54;78.44;99677.81;5032251;28;20068;-83
2023/08/15 02:00:25;;;;;;;4.95;4.45;;;;;;;23.59;78.89;99686.16;5038153;28;20116;-83
2023/08/15 02:02:50;;;;;;;6.03;4.53;;;;;;;23.54;78.57;99672.47;5038810;28;20056;-83
2023/08/15 02:05:16;;;;;;;4.50;4.10;;;;;;;23.63;78.35;99684.84;5038475;28;20041;-83
2023/08/15 02:07:41;;;;;;;5.15;4.65;;;;;;;23.59;78.66;99671.03;5038158;28;20021;-83
2023/08/15 02:10:07;;;;;;;6.00;4.78;;;;;;;23.51;78.26;99660.34;5038370;28;20029;-83
2023/08/15 02:12:32;;;;;;;5.25;4.75;;;;;;;23.63;78.28;99679.53;5037684;28;20037;-83
2023/08/15 02:14:57;;;;;;;5.30;4.80;;;;;;;23.62;77.99;99680.53;5038281;28;20122;-83
2023/08/15 02:17:23;;;;;;;5.18;4.25;;;;;;;23.46;78.06;99656.47;5038425;28;20053;-83
2023/08/15 02:19:48;;;;;;;5.32;4.07;;;;;;;23.42;78.14;99656.75;5020384;28;20507;-83
2023/08/15 02:22:13;;;;;;;4.93;4.35;;;;;;;23.36;78.72;99656.56;5038331;28;20032;-83
2023/08/15 02:24:39;;;;;;;4.47;4.07;;;;;;;23.50;78.87;99687.06;5038005;28;20056;-83
2023/08/15 02:27:04;;;;;;;4.03;3.63;;;;;;;23.44;78.55;99682.38;5038153;28;20048;-83
2023/08/15 02:29:29;;;;;;;4.80;4.40;;;;;;;23.36;78.54;99676.00;5038172;28;20033;-83
2023/08/15 02:31:55;;;;;;;4.60;4.20;;;;;;;23.35;79.02;99674.34;5038262;28;20026;-83
2023/08/15 02:34:20;;;;;;;5.07;4.38;;;;;;;23.29;78.76;99674.09;5038216;28;20025;-83
2023/08/15 02:36:49;;;;;;;5.03;4.63;;;;;;;23.14;79.02;99653.38;5037942;28;20028;-83
2023/08/15 02:39:16;;;;;;;5.40;4.90;;;;;;;23.25;79.13;99680.69;5038119;28;20033;-83
2023/08/15 02:41:41;;;;;;;4.90;4.07;;;;;;;23.10;78.75;99665.31;5037770;28;20026;-83
2023/08/15 02:44:07;;;;;;;4.70;4.30;;;;;;;23.11;78.83;99664.31;5038397;28;20045;-83
2023/08/15 02:46:33;;;;;;;5.00;4.45;;;;;;;23.15;79.28;99684.28;5037919;28;20116;-83
2023/08/15 02:48:58;;;;;;;9.23;4.25;;;;;;;23.02;79.48;99667.03;5038016;28;20072;-83
2023/08/15 02:51:24;;;;;;;5.18;4.18;;;;;;;23.14;79.46;99685.28;5038318;28;20025;-83
2023/08/15 02:53:49;;;;;;;5.68;4.82;;;;;;;23.10;79.59;99689.22;5037813;28;20459;-83
2023/08/15 02:56:15;;;;;;;5.13;4.22;;;;;;;22.89;80.05;99662.06;5038202;28;20025;-83
2023/08/15 02:58:41;;;;;;;5.30;4.22;;;;;;;22.89;79.91;99675.34;5037878;28;20029;-83
2023/08/15 03:01:06;;;;;;;7.95;5.07;;;;;;;22.85;80.07;99666.00;5038050;28;20039;-83
2023/08/15 03:03:32;;;;;;;5.70;4.65;;;;;;;22.85;80.30;99677.47;5037749;28;20061;-83
2023/08/15 03:06:01;;;;;;;5.82;4.63;;;;;;;22.87;80.79;99694.06;5037924;28;20049;-83
2023/08/15 03:08:27;;;;;;;5.63;4.70;;;;;;;22.85;81.18;99690.75;5037843;28;20029;-83
2023/08/15 03:10:53;;;;;;;5.75;4.60;;;;;;;22.69;81.48;99673.78;5016523;28;20088;-83
2023/08/15 03:13:19;;;;;;;5.75;5.10;;;;;;;22.73;81.95;99683.97;5016996;28;20116;-83
2023/08/15 03:15:54;;;;;;;7.45;4.85;;;;;;;22.54;82.03;99655.69;5016767;28;20112;-83
2023/08/15 03:18:20;;;;;;;7.22;5.95;;;;;;;22.62;82.28;99686.81;5034619;28;20631;-83
2023/08/15 03:20:59;;;;;;;5.88;4.80;;;;;;;22.60;82.88;99688.78;5034435;28;20021;-83
2023/08/15 03:23:25;;;;;;;5.28;4.70;;;;;;;22.54;83.05;99690.19;5034737;28;20037;-83
2023/08/15 03:26:01;;;;;;;5.68;4.82;;;;;;;22.39;83.59;99675.75;5034390;28;20029;-83
2023/08/15 03:28:26;;;;;;;6.28;5.13;;;;;;;22.38;83.96;99687.34;5034378;28;20442;-83
2023/08/15 03:30:52;;;;;;;4.85;4.40;;;;;;;22.35;84.05;99706.22;5034150;28;20021;-83
2023/08/15 03:33:17;;;;;;;5.93;5.35;;;;;;;22.22;84.59;99701.25;5034197;28;20061;-83
2023/08/15 03:35:51;;;;;;;5.15;4.65;;;;;;;22.24;84.55;99720.47;5016222;28;20033;-83
2023/08/15 03:38:18;;;;;;;6.07;5.45;;;;;;;22.16;85.22;99713.28;5034690;28;20030;-83
2023/08/15 03:40:45;;;;;;;5.05;4.65;;;;;;;22.01;85.48;99700.56;4991984;28;20093;-83
2023/08/15 03:43:11;;;;;;;6.57;5.32;;;;;;;22.07;86.04;99716.72;4976021;28;20133;-83
2023/08/15 03:45:37;;;;;;;6.05;5.45;;;;;;;22.06;86.11;99724.84;4992166;28;20122;-83
2023/08/15 03:48:03;;;;;;;7.03;5.47;;;;;;;22.02;86.27;99728.75;4992378;28;20085;-83
2023/08/15 03:50:32;;;;;;;6.25;5.57;;;;;;;22.03;86.41;99733.91;4991974;28;20053;-83
2023/08/15 03:52:57;;;;;;;6.43;5.43;;;;;;;21.91;86.79;99719.13;4992140;28;20037;-83
2023/08/15 03:55:22;;;;;;;6.25;5.63;;;;;;;21.90;87.12;99715.66;4992132;28;20129;-83
2023/08/15 03:57:48;;;;;;;5.60;5.15;;;;;;;21.85;87.03;99720.53;4991943;28;20109;-83
2023/08/15 04:00:13;;;;;;;5.72;5.32;;;;;;;21.92;86.92;99726.13;4992084;28;20039;-83
2023/08/15 04:02:39;;;;;;;6.10;5.38;;;;;;;21.91;87.52;99727.09;4991850;28;20114;-83
2023/08/15 04:05:04;;;;;;;6.93;5.38;;;;;;;21.97;87.64;99738.97;4975639;28;20031;-83
2023/08/15 04:07:29;;;;;;;6.28;5.28;;;;;;;21.92;87.58;99732.28;4991943;28;20073;-83
2023/08/15 04:09:55;;;;;;;6.38;5.22;;;;;;;21.81;87.67;99729.75;4975486;28;20088;-83
2023/08/15 04:12:20;;;;;;;5.78;5.20;;;;;;;21.83;87.71;99719.88;5002645;28;20120;-83
2023/08/15 04:14:45;;;;;;;5.93;5.30;;;;;;;22.02;87.35;99742.03;5013714;28;20049;-83
2023/08/15 04:17:11;;;;;;;5.78;5.28;;;;;;;22.20;87.20;99739.50;5013818;28;20060;-83
2023/08/15 04:19:36;;;;;;;5.95;5.45;;;;;;;22.39;85.84;99726.19;5013704;28;20030;-83
2023/08/15 04:22:01;;;;;;;5.85;5.10;;;;;;;22.62;85.48;99730.13;5012193;28;20026;-83
2023/08/15 04:24:28;;;;;;;7.00;5.35;;;;;;;22.88;84.62;99740.03;5012402;28;20030;-83
2023/08/15 04:26:53;;;;;;;5.82;4.93;;;;;;;22.86;83.77;99716.31;5013431;28;20030;-83
2023/08/15 04:29:19;;;;;;;5.25;4.85;;;;;;;22.99;83.82;99733.75;5013644;28;20034;-83
2023/08/15 04:31:44;;;;;;;5.95;5.45;;;;;;;23.02;83.77;99730.78;5013267;28;20029;-83
2023/08/15 04:34:09;;;;;;;7.30;5.15;;;;;;;23.08;83.36;99741.66;5011965;28;20026;-83
2023/08/15 04:36:34;;;;;;;5.72;5.30;;;;;;;23.07;83.61;99729.34;5013381;28;20061;-83
2023/08/15 04:39:01;;;;;;;6.88;5.30;;;;;;;23.26;83.18;99739.03;5013488;28;20497;-83
2023/08/15 04:41:26;;;;;;;5.45;4.97;;;;;;;23.40;83.12;99735.84;5013452;28;20106;-83
2023/08/15 04:43:51;;;;;;;7.32;5.13;;;;;;;23.52;82.75;99743.59;5011849;28;20528;-83
2023/08/15 04:46:17;;;;;;;5.82;5.22;;;;;;;23.57;82.25;99733.34;5013242;28;20028;-83
2023/08/15 04:48:42;;;;;;;6.47;5.47;;;;;;;23.58;81.76;99716.38;5013534;28;20050;-83
2023/08/15 04:51:07;;;;;;;5.65;5.05;;;;;;;23.70;81.82;99717.84;5032966;28;20022;-83
2023/08/15 04:53:33;;;;;;;6.53;5.15;;;;;;;24.27;81.18;99750.19;5032884;28;20033;-83
2023/08/15 04:55:58;;;;;;;6.22;4.80;;;;;;;24.71;79.04;99739.47;5032670;28;20029;-83
2023/08/15 04:58:23;;;;;;;5.25;4.85;;;;;;;25.46;77.09;99731.53;5032747;28;20480;-83
2023/08/15 05:00:49;;;;;;;5.82;5.28;;;;;;;26.58;73.79;99721.91;5032447;28;20086;-83
2023/08/15 05:03:14;;;;;;;6.20;5.30;;;;;;;27.77;69.49;99734.09;5032756;28;20061;-83
2023/08/15 05:05:39;;;;;;;5.28;4.82;;;;;;;28.18;68.26;99710.44;5032803;28;20025;-83
2023/08/15 05:08:06;;;;;;;5.63;5.00;;;;;;;28.29;67.74;99746.66;5032724;28;20022;-83
2023/08/15 05:10:32;;;;;;;7.18;4.90;;;;;;;27.89;68.70;99743.34;5014950;28;20021;-83
2023/08/15 05:12:59;;;;;;;5.43;5.03;;;;;;;27.46;68.90;99737.66;5032155;28;20091;-83
2023/08/15 05:15:25;;;;;;;5.80;4.80;;;;;;;27.36;69.72;99745.09;5014601;28;20029;-83
2023/08/15 05:17:50;;;;;;;5.60;4.20;;;;;;;27.47;70.17;99750.00;5032049;28;20065;-83
2023/08/15 05:20:16;;;;;;;4.85;4.35;;;;;;;27.91;68.25;99744.03;5032539;28;20079;-83
2023/08/15 05:22:41;;;;;;;6.82;4.93;;;;;;;28.96;65.17;99745.72;5032197;28;20030;-83
2023/08/15 05:25:07;;;;;;;4.85;4.45;;;;;;;29.99;64.10;99749.88;5032434;28;20025;-83
2023/08/15 05:27:33;;;;;;;6.40;4.50;;;;;;;30.45;61.86;99773.59;5032571;28;20037;-83
2023/08/15 05:29:58;;;;;;;6.45;4.95;;;;;;;29.94;62.25;99757.72;5032091;28;20022;-83
2023/08/15 05:32:24;;;;;;;5.18;4.57;;;;;;;29.38;64.51;99757.59;5032290;28;20025;-83
2023/08/15 05:34:49;;;;;;;5.35;4.88;;;;;;;28.96;64.69;99753.78;5031374;28;20041;-83
2023/08/15 05:37:14;;;;;;;5.10;4.70;;;;;;;28.90;65.77;99762.56;5032243;28;20109;-83
2023/08/15 05:39:40;;;;;;;6.00;4.72;;;;;;;29.21;65.22;99738.22;5014188;28;20069;-83
2023/08/15 05:42:05;;;;;;;5.68;5.07;;;;;;;30.12;63.01;99766.09;5032324;28;20032;-83
2023/08/15 05:44:31;;;;;;;5.40;4.90;;;;;;;30.88;61.94;99773.44;5032256;28;20032;-83
2023/08/15 05:46:56;;;;;;;7.22;4.45;;;;;;;30.88;61.39;99771.56;5031670;28;20112;-81
2023/08/15 05:49:21;;;;;;;4.82;4.43;;;;;;;30.57;61.44;99769.31;5032194;28;20049;-83
2023/08/15 05:51:47;;;;;;;4.90;4.35;;;;;;;30.25;62.19;99773.47;5032094;28;20049;-83
2023/08/15 05:54:12;;;;;;;5.40;4.90;;;;;;;30.10;63.24;99772.72;5031949;28;20064;-83
2023/08/15 05:56:38;;;;;;;5.25;4.85;;;;;;;30.08;63.04;99775.56;5032012;28;20028;-83
2023/08/15 05:59:03;;;;;;;5.15;4.53;;;;;;;30.06;62.94;99778.47;5031924;28;20464;-84
2023/08/15 06:01:29;;;;;;;5.35;4.85;;;;;;;30.11;62.58;99775.19;5031882;28;20108;-86
2023/08/15 06:03:54;;;;;;;4.43;4.13;;;;;;;30.23;62.94;99773.66;5031574;28;20041;-86
2023/08/15 06:06:21;;;;;;;4.88;4.47;;;;;;;30.34;63.11;99777.69;5014250;28;20480;-86
2023/08/15 06:08:47;;;;;;;5.03;4.53;;;;;;;30.17;63.52;99773.59;5014034;28;20397;-86
2023/08/15 06:11:12;;;;;;;6.20;4.80;;;;;;;30.17;62.74;99770.91;5031803;28;20104;-86
2023/08/15 06:13:37;;;;;;;5.60;4.75;;;;;;;30.07;63.40;99776.59;5014026;28;20124;-86
2023/08/15 06:16:03;;;;;;;6.63;5.13;;;;;;;30.02;63.71;99784.44;5013728;28;20072;-86
2023/08/15 06:18:28;;;;;;;5.90;5.28;;;;;;;29.82;63.27;99766.28;5031860;28;20049;-86
2023/08/15 06:20:53;;;;;;;5.18;4.78;;;;;;;29.76;64.59;99775.13;5031599;28;20086;-86
2023/08/15 06:23:19;;;;;;;7.20;5.28;;;;;;;29.77;63.49;99784.81;5014023;28;20033;-86
2023/08/15 06:25:44;;;;;;;4.93;4.53;;;;;;;29.86;63.82;99777.47;5013743;28;20017;-86
2023/08/15 06:28:10;;;;;;;5.00;4.60;;;;;;;29.95;64.02;99780.84;5031622;28;20072;-86
2023/08/15 06:30:35;;;;;;;6.05;5.15;;;;;;;30.13;64.69;99770.47;5013832;28;20147;-86
2023/08/15 06:33:00;;;;;;;5.63;5.05;;;;;;;30.12;64.33;99757.22;5031215;28;20072;-86
2023/08/15 06:35:28;;;;;;;6.20;5.60;;;;;;;30.31;64.37;99783.44;5031573;28;20029;-86
2023/08/15 06:37:54;;;;;;;5.57;4.85;;;;;;;30.61;65.19;99775.97;5013546;28;20025;-86
2023/08/15 06:40:19;;;;;;;5.13;4.32;;;;;;;30.88;63.68;99757.31;5031583;28;20033;-86
2023/08/15 06:42:44;;;;;;;4.72;4.32;;;;;;;31.19;62.47;99781.84;5031380;28;20030;-86
2023/08/15 06:45:16;;;;;;;5.10;4.60;;;;;;;31.47;61.96;99779.03;5033305;28;20484;-86
2023/08/15 06:47:42;;;;;;;5.90;5.07;;;;;;;31.84;61.59;99773.31;5034218;28;20404;-86
2023/08/15 06:50:08;;;;;;;5.18;4.78;;;;;;;32.15;60.25;99770.84;5016722;28;20044;-86
2023/08/15 06:52:34;;;;;;;4.90;4.35;;;;;;;32.52;59.81;99777.41;5034487;28;20461;-83
2023/08/15 06:55:03;;;;;;;5.30;4.80;;;;;;;32.77;58.15;99785.63;5034405;28;20029;-83
2023/08/15 06:57:32;;;;;;;4.97;4.53;;;;;;;32.66;58.15;99788.19;5034684;28;20018;-83
2023/08/15 06:59:57;;;;;;;7.97;5.60;;;;;;;32.39;58.76;99757.75;5034219;28;20040;-83
2023/08/15 07:02:23;;;;;;;5.20;4.35;;;;;;;32.41;58.98;99745.72;5034667;28;20019;-85
2023/08/15 07:04:48;;;;;;;5.28;4.85;;;;;;;32.66;58.08;99777.41;5034330;28;20025;-85
2023/08/15 07:07:14;;;;;;;5.78;5.28;;;;;;;32.81;58.93;99760.94;4992375;28;20550;-85
2023/08/15 07:09:40;;;;;;;5.47;5.03;;;;;;;33.38;57.51;99768.16;4976168;28;20233;-85
2023/08/15 07:12:05;;;;;;;6.28;4.32;;;;;;;33.86;56.55;99769.53;4992711;28;20093;-85
2023/08/15 07:14:32;;;;;;;5.10;4.40;;;;;;;34.59;56.71;99785.91;4992764;28;20034;-85
2023/08/15 07:16:57;;;;;;;5.22;4.80;;;;;;;35.13;54.02;99791.56;4992549;28;20041;-85
2023/08/15 07:19:23;;;;;;;6.97;4.60;;;;;;;35.65;54.89;99781.88;4991217;28;20030;-84
2023/08/15 07:21:48;;;;;;;5.50;4.50;;;;;;;36.73;53.66;99771.66;4975636;28;20530;-83
2023/08/15 07:24:14;;;;;;;5.75;5.05;;;;;;;38.15;51.85;99783.53;4975994;28;20023;-84
2023/08/15 07:26:40;;;;;;;4.68;4.28;;;;;;;39.37;50.07;99768.78;4999453;28;20122;-84
2023/08/15 07:29:05;;;;;;;5.47;4.97;;;;;;;40.52;48.88;99790.13;4975705;28;20058;-85
2023/08/15 07:31:31;;;;;;;5.22;4.72;;;;;;;41.52;48.05;99778.22;4992168;28;20610;-85
2023/08/15 07:33:56;;;;;;;4.45;4.15;;;;;;;42.34;47.55;99785.28;4991846;28;20161;-85
2023/08/15 07:36:23;;;;;;;5.15;4.63;;;;;;;43.03;46.46;99791.09;4975856;28;20065;-85
2023/08/15 07:38:48;;;;;;;5.57;4.20;;;;;;;43.74;44.86;99793.38;4991757;28;20065;-84
2023/08/15 07:41:14;;;;;;;6.93;4.60;;;;;;;44.19;44.66;99790.50;4992043;28;20042;-85
2023/08/15 07:43:39;;;;;;;5.05;4.65;;;;;;;44.11;43.93;99797.44;4995360;28;20034;-84
2023/08/15 07:46:05;;;;;;;4.68;4.18;;;;;;;44.22;44.60;99789.94;5015960;28;20047;-85
2023/08/15 07:48:31;;;;;;;5.07;4.68;;;;;;;44.55;44.50;99783.53;5033784;28;20517;-85
2023/08/15 07:50:57;;;;;;;7.03;5.05;;;;;;;44.82;43.75;99795.88;5033411;28;20045;-85
2023/08/15 07:53:23;;;;;;;5.95;4.50;;;;;;;44.65;43.16;99796.34;5033625;28;20045;-84
2023/08/15 07:55:51;;;;;;;5.38;4.88;;;;;;;44.18;44.17;99783.38;5033386;28;20107;-85
2023/08/15 07:58:27;;;;;;;5.30;4.70;;;;;;;44.41;44.67;99790.84;5015102;28;20022;-85
2023/08/15 08:00:52;;;;;;;5.05;4.60;;;;;;;44.56;44.05;99792.59;5033655;28;20040;-85
2023/08/15 08:03:18;;;;;;;4.50;4.20;;;;;;;44.81;43.99;99794.22;5033640;28;20017;-85
2023/08/15 08:05:43;;;;;;;5.15;4.65;;;;;;;44.92;43.66;99786.66;5015864;28;20041;-85
2023/08/15 08:08:10;;;;;;;4.65;4.35;;;;;;;44.95;43.84;99800.63;5028361;28;20021;-85
2023/08/15 08:10:36;;;;;;;4.97;4.28;;;;;;;44.61;43.43;99792.53;5033734;28;20033;-85
2023/08/15 08:13:02;;;;;;;5.95;4.88;;;;;;;43.95;43.18;99788.53;5014977;28;20025;-84
2023/08/15 08:15:28;;;;;;;5.78;4.63;;;;;;;42.97;44.09;99787.53;5015550;28;20373;-85
2023/08/15 08:17:53;;;;;;;5.30;4.90;;;;;;;41.73;44.98;99760.72;5030431;28;20080;-85
2023/08/15 08:20:20;;;;;;;6.53;3.90;;;;;;;40.69;46.08;99756.38;5027178;28;20435;-84
2023/08/15 08:22:47;;;;;;;5.07;4.57;;;;;;;39.19;47.47;99774.56;5015327;28;20510;-84
2023/08/15 08:25:19;;;;;;;5.00;4.60;;;;;;;37.84;49.25;99777.59;5032785;28;20033;-85
2023/08/15 08:27:45;;;;;;;5.15;4.65;;;;;;;36.99;51.47;99762.19;5033228;28;20021;-84
2023/08/15 08:30:19;;;;;;;5.18;4.68;;;;;;;36.42;52.08;99762.03;5032738;28;20029;-85
2023/08/15 08:32:46;;;;;;;5.10;4.43;;;;;;;36.02;52.31;99761.91;5032917;28;20021;-84
2023/08/15 08:35:16;;;;;;;4.75;4.35;;;;;;;35.63;52.62;99740.63;5032621;28;20021;-84
2023/08/15 08:37:43;;;;;;;5.22;4.70;;;;;;;35.56;52.70;99763.47;4971359;28;20134;-84
2023/08/15 08:40:09;;;;;;;5.65;4.68;;;;;;;35.32;52.66;99749.03;4954959;28;20504;-84
2023/08/15 08:42:35;;;;;;;4.60;4.20;;;;;;;35.15;53.73;99748.84;4971247;28;20039;-84
2023/08/15 08:45:02;;;;;;;5.07;4.60;;;;;;;34.99;54.32;99753.03;4971272;28;20041;-84
2023/08/15 08:47:30;;;;;;;6.22;4.50;;;;;;;34.75;54.69;99739.31;4971368;28;20045;-87
2023/08/15 08:49:59;;;;;;;5.00;4.60;;;;;;;34.64;54.87;99742.81;4968592;28;20089;-85
2023/08/15 08:52:26;;;;;;;6.72;4.40;;;;;;;34.57;55.64;99760.16;4971049;28;20031;-85
2023/08/15 08:54:51;;;;;;;5.22;4.82;;;;;;;34.47;55.23;99766.03;4970885;28;20151;-84
2023/08/15 08:57:18;;;;;;;5.43;4.40;;;;;;;33.99;55.47;99686.47;4977064;28;20039;-85
2023/08/15 08:59:45;;;;;;;4.32;4.03;;;;;;;34.24;55.42;99745.91;4954011;28;20039;-85
2023/08/15 09:02:14;;;;;;;5.03;4.57;;;;;;;34.07;55.54;99738.59;4970405;28;20031;-85
2023/08/15 09:04:41;;;;;;;5.13;4.63;;;;;;;34.09;56.35;99750.84;4971314;28;20042;-85
2023/08/15 09:07:06;;;;;;;4.72;4.30;;;;;;;33.98;56.69;99751.56;4954558;28;20490;-85
2023/08/15 09:09:32;;;;;;;5.65;4.47;;;;;;;33.65;56.19;99731.03;5004267;28;20041;-86
2023/08/15 09:11:57;;;;;;;4.90;4.50;;;;;;;33.39;57.05;99753.63;5032044;28;20464;-85
2023/08/15 09:14:23;;;;;;;5.13;4.57;;;;;;;33.25;57.04;99746.66;5014456;28;20382;-85
2023/08/15 09:16:49;;;;;;;5.32;4.80;;;;;;;33.25;58.41;99754.75;5014528;28;20025;-86
2023/08/15 09:19:15;;;;;;;4.85;4.45;;;;;;;33.23;58.27;99746.84;5014093;28;20108;-85
2023/08/15 09:21:41;;;;;;;6.57;4.82;;;;;;;33.14;58.05;99726.56;5013538;28;20052;-86
2023/08/15 09:24:07;;;;;;;5.93;4.82;;;;;;;33.12;58.62;99739.47;5031887;28;20469;-86
2023/08/15 09:26:34;;;;;;;8.52;4.60;;;;;;;33.10;58.22;99749.63;5032311;28;20456;-85
2023/08/15 09:29:01;;;;;;;4.97;4.50;;;;;;;32.96;58.22;99735.41;5013985;28;20468;-84
2023/08/15 09:31:26;;;;;;;4.53;4.18;;;;;;;32.94;58.08;99744.72;5031774;28;20025;-85
2023/08/15 09:33:51;;;;;;;5.20;4.70;;;;;;;32.75;57.54;99736.50;5031628;28;20076;-86
2023/08/15 09:36:18;;;;;;;4.82;4.43;;;;;;;32.60;57.73;99748.56;5031915;28;20059;-84
2023/08/15 09:38:43;;;;;;;4.63;3.40;;;;;;;32.57;58.00;99746.28;5014205;28;20480;-86
2023/08/15 09:41:12;;;;;;;4.28;3.95;;;;;;;32.52;58.34;99742.38;5031296;28;20059;-87
2023/08/15 09:43:54;;;;;;;4.70;4.20;;;;;;;32.50;58.99;99744.47;5031977;28;20151;-87
2023/08/15 09:46:21;;;;;;;4.80;4.40;;;;;;;32.43;58.36;99727.47;5029900;28;20022;-87
2023/08/15 09:48:47;;;;;;;6.07;4.47;;;;;;;32.51;58.88;99734.50;5031406;28;20512;-85
2023/08/15 09:51:15;;;;;;;5.78;4.38;;;;;;;32.46;59.03;99718.97;5031232;28;20083;-85
2023/08/15 09:53:45;;;;;;;5.25;3.92;;;;;;;32.50;57.94;99725.59;5013857;28;20025;-85
2023/08/15 09:56:12;;;;;;;5.30;4.63;;;;;;;32.47;57.52;99725.19;5031426;28;20025;-85
2023/08/15 09:58:38;;;;;;;5.07;4.57;;;;;;;32.45;57.85;99740.75;5013821;28;20025;-85
2023/08/15 10:01:29;;;;;;;5.82;4.40;;;;;;;32.40;58.83;99729.75;5027450;28;20037;-85
2023/08/15 10:03:57;;;;;;;;;;;;;;;32.43;57.02;99730.16;5026805;28;20102;-86
2023/08/15 10:06:24;;;;;;;4.90;4.50;;;;;;;32.37;56.63;99735.56;5012431;28;19916;-86
2023/08/15 10:08:49;;;;;;;5.55;4.28;;;;;;;32.39;56.87;99736.19;5029220;28;20073;-86
2023/08/15 10:11:15;;;;;;;5.63;4.10;;;;;;;32.39;57.09;99742.41;5028950;28;20057;-87
2023/08/15 10:13:42;;;;;;;5.35;4.22;;;;;;;32.25;57.01;99721.88;5028793;28;20461;-87
2023/08/15 10:16:14;;;;;;;5.15;4.65;;;;;;;32.29;56.88;99737.44;5012175;28;20382;-87
2023/08/15 10:18:51;;;;;;;4.95;3.80;;;;;;;32.27;56.41;99734.09;5010602;28;20037;-87
2023/08/15 10:21:18;;;;;;;4.25;3.85;;;;;;;32.34;57.03;99744.88;5030057;28;20037;-87
2023/08/15 10:23:44;;;;;;;6.65;3.92;;;;;;;32.29;56.06;99720.44;5032971;28;20492;-86
2023/08/15 10:26:10;;;;;;;4.85;3.80;;;;;;;32.24;56.46;99709.47;5032770;28;20100;-86
2023/08/15 10:28:35;;;;;;;4.50;4.15;;;;;;;32.41;57.00;99717.94;5032854;28;20041;-85
2023/08/15 10:31:01;;;;;;;5.97;4.15;;;;;;;32.45;56.26;99721.88;5015858;28;20028;-86
2023/08/15 10:33:31;;;;;;;4.82;4.35;;;;;;;32.33;57.11;99718.16;5034929;28;20030;-86
2023/08/15 10:35:56;;;;;;;4.72;4.20;;;;;;;32.48;57.01;99743.81;5032630;28;20022;-86
2023/08/15 10:38:22;;;;;;;5.10;4.43;;;;;;;32.21;57.17;99680.22;5035132;28;20490;-86
2023/08/15 10:40:50;;;;;;;4.63;4.28;;;;;;;32.40;57.12;99705.50;5034911;28;20029;-85
2023/08/15 10:43:16;;;;;;;4.20;3.90;;;;;;;32.34;56.67;99698.22;5035322;28;20057;-86
2023/08/15 10:45:43;;;;;;;6.57;4.07;;;;;;;32.51;57.29;99726.41;5035387;28;20108;-85
2023/08/15 10:48:09;;;;;;;4.93;4.45;;;;;;;32.38;56.73;99716.50;5035138;28;20025;-86
2023/08/15 10:50:36;;;;;;;5.53;5.03;;;;;;;32.43;56.53;99722.06;5017182;28;20049;-86
2023/08/15 10:53:05;;;;;;;5.75;4.53;;;;;;;32.42;57.49;99722.28;5034816;28;20079;-86
2023/08/15 10:55:37;;;;;;;5.07;4.63;;;;;;;32.46;57.79;99718.13;5035253;28;20033;-86
2023/08/15 10:58:05;;;;;;;4.97;3.92;;;;;;;32.40;56.85;99713.56;5034944;28;20029;-85
2023/08/15 11:00:31;;;;;;;5.20;4.70;;;;;;;32.46;56.69;99726.22;5035084;28;20041;-86
2023/08/15 11:02:57;;;;;;;4.65;4.18;;;;;;;32.42;56.63;99722.28;5017257;28;20037;-85
2023/08/15 11:05:23;;;;;;;4.82;4.32;;;;;;;32.40;56.59;99724.34;5017220;28;20029;-86
2023/08/15 11:07:48;;;;;;;4.85;4.45;;;;;;;32.29;56.94;99712.34;5034801;28;20025;-85
2023/08/15 11:10:14;;;;;;;5.18;4.75;;;;;;;32.33;57.14;99713.59;5034754;28;20029;-85
2023/08/15 11:12:58;;;;;;;4.75;4.30;;;;;;;32.33;56.89;99724.38;5035279;28;20063;-85
2023/08/15 11:15:23;;;;;;;5.30;4.80;;;;;;;32.21;57.92;99716.09;5035019;28;20108;-85
2023/08/15 11:17:48;;;;;;;4.88;4.35;;;;;;;32.15;58.32;99708.00;5016961;28;20537;-84
2023/08/15 11:20:14;;;;;;;4.82;4.43;;;;;;;32.14;57.30;99691.00;5034392;28;20034;-84
2023/08/15 11:22:40;;;;;;;4.85;4.30;;;;;;;32.23;57.13;99715.88;5034784;28;20048;-84
2023/08/15 11:25:08;;;;;;;4.45;4.05;;;;;;;32.17;57.51;99716.72;5016712;28;20087;-84
2023/08/15 11:27:45;;;;;;;4.95;4.55;;;;;;;32.32;57.94;99729.94;5034878;28;20032;-84
2023/08/15 11:30:11;;;;;;;4.95;4.55;;;;;;;32.10;56.76;99695.16;5034302;28;20036;-86
2023/08/15 11:32:39;;;;;;;5.43;4.43;;;;;;;32.19;57.24;99717.31;5033326;28;20029;-86